createdAt,value
2018-01-29T00:00:21.483Z,4.22
2018-01-29T00:02:50.940Z,4.65
2018-01-29T00:05:20.458Z,3.20
2018-01-29T00:07:49.937Z,3.20
2018-01-29T00:10:19.639Z,3.28
2018-01-29T00:12:49.117Z,3.50
2018-01-29T00:15:18.752Z,3.50
2018-01-29T00:17:48.270Z,3.37
2018-01-29T00:20:17.882Z,3.30
2018-01-29T00:22:47.384Z,4.62
2018-01-29T00:25:16.880Z,3.55
2018-01-29T00:27:46.376Z,3.50
2018-01-29T00:30:15.850Z,3.45
2018-01-29T00:32:45.368Z,3.47
2018-01-29T00:35:14.835Z,3.17
2018-01-29T00:37:44.358Z,3.75
2018-01-29T00:40:13.867Z,3.75
2018-01-29T00:42:43.491Z,3.55
2018-01-29T00:45:13.003Z,4.05
2018-01-29T00:47:42.456Z,3.37
2018-01-29T00:50:12.144Z,4.20
2018-01-29T00:52:41.666Z,4.25
2018-01-29T00:55:11.163Z,3.90
2018-01-29T00:57:40.631Z,4.37
2018-01-29T01:00:10.142Z,3.30
2018-01-29T01:02:39.614Z,4.40
2018-01-29T01:05:09.125Z,4.20
2018-01-29T01:07:38.599Z,5.03
2018-01-29T01:10:08.100Z,5.40
2018-01-29T01:12:37.608Z,4.60
2018-01-29T01:15:07.143Z,5.05
2018-01-29T01:17:36.643Z,5.75
2018-01-29T01:20:06.136Z,5.78
2018-01-29T01:22:35.620Z,6.35
2018-01-29T01:25:05.270Z,5.12
2018-01-29T01:27:34.729Z,4.78
2018-01-29T01:30:04.335Z,8.05
2018-01-29T01:32:33.828Z,5.95
2018-01-29T01:35:03.310Z,5.57
2018-01-29T01:37:33.032Z,5.47
2018-01-29T01:40:02.503Z,5.30
2018-01-29T01:42:32.005Z,5.30
2018-01-29T01:45:01.443Z,6.20
2018-01-29T01:47:30.951Z,6.70
2018-01-29T01:50:00.439Z,6.78
2018-01-29T01:52:29.939Z,7.32
2018-01-29T01:54:59.441Z,6.93
2018-01-29T01:57:29.003Z,6.25
2018-01-29T01:59:58.543Z,7.50
2018-01-29T02:02:28.002Z,7.80
2018-01-29T02:04:57.509Z,5.68
2018-01-29T02:07:27.040Z,6.20
2018-01-29T02:09:56.508Z,6.35
2018-01-29T02:12:26.035Z,6.70
2018-01-29T02:14:55.556Z,7.28
2018-01-29T02:17:25.088Z,6.30
2018-01-29T02:19:54.560Z,8.20
2018-01-29T02:22:24.066Z,6.53
2018-01-29T02:24:53.513Z,6.80
2018-01-29T02:27:23.018Z,5.95
2018-01-29T02:29:52.588Z,6.93
2018-01-29T02:32:22.090Z,6.95
2018-01-29T02:34:51.589Z,5.97
2018-01-29T02:37:21.086Z,6.47
2018-01-29T02:39:50.593Z,5.62
2018-01-29T02:42:20.109Z,6.05
2018-01-29T02:44:49.617Z,4.87
2018-01-29T02:47:19.060Z,5.12
2018-01-29T02:49:48.576Z,6.40
2018-01-29T02:52:18.030Z,6.70
2018-01-29T02:54:47.557Z,5.10
2018-01-29T02:57:17.075Z,4.85
2018-01-29T02:59:46.597Z,4.22
2018-01-29T03:02:16.059Z,4.12
2018-01-29T03:04:45.568Z,3.58
2018-01-29T03:07:15.074Z,3.75
2018-01-29T03:09:44.541Z,3.53
2018-01-29T03:12:14.105Z,3.12
2018-01-29T03:14:43.664Z,3.22
2018-01-29T03:17:13.159Z,2.50
2018-01-29T03:19:42.624Z,2.72
2018-01-29T03:22:12.122Z,2.70
2018-01-29T03:24:41.603Z,2.40
2018-01-29T03:27:11.101Z,2.95
2018-01-29T03:29:40.701Z,2.75
2018-01-29T03:32:10.222Z,2.30
2018-01-29T03:34:39.684Z,3.53
2018-01-29T03:37:09.246Z,1.90
2018-01-29T03:39:38.685Z,1.90
2018-01-29T03:42:08.233Z,2.35
2018-01-29T03:44:37.840Z,2.08
2018-01-29T03:47:07.321Z,1.80
2018-01-29T03:49:36.815Z,1.77
2018-01-29T03:52:06.330Z,1.80
2018-01-29T03:54:35.838Z,1.87
2018-01-29T03:57:05.338Z,1.83
2018-01-29T03:59:34.864Z,1.70
2018-01-29T04:02:04.345Z,1.77
2018-01-29T04:04:33.863Z,1.90
2018-01-29T04:07:03.302Z,1.80
2018-01-29T04:09:32.819Z,1.98
2018-01-29T04:12:02.300Z,1.65
2018-01-29T04:14:31.754Z,1.67
2018-01-29T04:17:01.289Z,1.67
2018-01-29T04:19:30.741Z,1.73
2018-01-29T04:22:00.280Z,1.75
2018-01-29T04:24:29.773Z,2.53
2018-01-29T04:26:59.296Z,2.45
2018-01-29T04:29:28.765Z,1.85
2018-01-29T04:31:58.295Z,3.20
2018-01-29T04:34:27.754Z,2.85
2018-01-29T04:36:57.282Z,2.20
2018-01-29T04:39:26.795Z,2.33
2018-01-29T04:41:56.310Z,2.42
2018-01-29T04:44:27.507Z,2.83
2018-01-29T04:46:56.949Z,3.10
2018-01-29T04:49:26.463Z,2.95
2018-01-29T04:51:55.980Z,2.50
2018-01-29T04:54:25.485Z,2.50
2018-01-29T04:56:55.163Z,3.55
2018-01-29T04:59:24.663Z,2.20
2018-01-29T05:01:54.142Z,2.62
2018-01-29T05:04:23.652Z,2.10
2018-01-29T05:06:53.118Z,2.00
2018-01-29T05:09:22.629Z,2.80
2018-01-29T05:11:52.080Z,6.18
2018-01-29T05:14:21.613Z,3.00
2018-01-29T05:16:51.075Z,2.03
2018-01-29T05:19:20.586Z,2.10
2018-01-29T05:21:50.022Z,2.03
2018-01-29T05:24:19.559Z,1.92
2018-01-29T05:26:49.063Z,2.40
2018-01-29T05:29:18.581Z,2.62
2018-01-29T05:31:48.093Z,2.70
2018-01-29T05:34:17.559Z,2.55
2018-01-29T05:37:05.734Z,2.30
2018-01-29T05:39:35.322Z,2.65
2018-01-29T05:42:04.867Z,2.83
2018-01-29T05:44:34.342Z,2.62
2018-01-29T05:47:03.868Z,2.97
2018-01-29T05:49:33.350Z,2.60
2018-01-29T05:52:02.850Z,2.60
2018-01-29T05:54:32.327Z,2.83
2018-01-29T05:57:02.043Z,2.80
2018-01-29T05:59:31.514Z,2.67
2018-01-29T06:02:01.014Z,2.70
2018-01-29T06:04:30.510Z,3.05
2018-01-29T06:07:00.004Z,3.17
2018-01-29T06:09:29.517Z,3.10
2018-01-29T06:11:59.729Z,3.20
2018-01-29T06:14:29.847Z,2.60
2018-01-29T06:16:59.349Z,3.12
2018-01-29T06:19:28.846Z,3.62
2018-01-29T06:21:58.405Z,2.97
2018-01-29T06:24:27.849Z,3.53
2018-01-29T06:26:57.363Z,3.50
2018-01-29T06:29:26.841Z,3.50
2018-01-29T06:31:56.339Z,3.25
2018-01-29T06:34:25.893Z,5.87
2018-01-29T06:36:55.395Z,3.00
2018-01-29T06:39:24.856Z,3.65
2018-01-29T06:41:54.372Z,4.37
2018-01-29T06:44:23.844Z,4.30
2018-01-29T06:46:53.362Z,4.22
2018-01-29T06:49:22.842Z,4.15
2018-01-29T06:51:52.321Z,5.10
2018-01-29T06:54:21.826Z,4.00
2018-01-29T06:56:51.336Z,4.10
2018-01-29T06:59:20.837Z,5.12
2018-01-29T07:01:50.369Z,5.00
2018-01-29T07:04:19.828Z,4.55
2018-01-29T07:06:49.323Z,5.10
2018-01-29T07:09:18.810Z,5.53
2018-01-29T07:11:48.494Z,5.43
2018-01-29T07:14:17.991Z,7.37
2018-01-29T07:16:47.470Z,5.57
2018-01-29T07:19:16.942Z,6.60
2018-01-29T07:21:46.410Z,5.40
2018-01-29T07:24:15.921Z,5.00
2018-01-29T07:26:45.403Z,6.15
2018-01-29T07:29:14.927Z,8.20
2018-01-29T07:31:44.407Z,8.45
2018-01-29T07:34:14.064Z,6.30
2018-01-29T07:36:43.526Z,11.38
2018-01-29T07:39:13.041Z,6.47
2018-01-29T07:41:42.577Z,9.10
2018-01-29T07:44:12.106Z,8.13
2018-01-29T07:46:41.624Z,8.70
2018-01-29T07:49:11.137Z,11.82
2018-01-29T07:51:40.616Z,7.32
2018-01-29T07:54:10.228Z,7.78
2018-01-29T07:56:39.743Z,8.40
2018-01-29T07:59:09.252Z,8.60
2018-01-29T08:01:38.750Z,7.18
2018-01-29T08:04:08.227Z,9.40
2018-01-29T08:06:37.746Z,9.10
2018-01-29T08:09:07.294Z,11.60
2018-01-29T08:11:36.806Z,7.95
2018-01-29T08:14:06.326Z,9.32
2018-01-29T08:16:36.001Z,8.60
2018-01-29T08:19:05.462Z,10.43
2018-01-29T08:21:34.979Z,8.10
2018-01-29T08:24:04.497Z,10.68
2018-01-29T08:26:33.996Z,13.07
2018-01-29T08:29:03.465Z,9.52
2018-01-29T08:31:33.000Z,11.25
2018-01-29T08:34:02.544Z,11.25
2018-01-29T08:36:32.006Z,8.00
2018-01-29T08:39:01.545Z,8.10
2018-01-29T08:41:31.258Z,7.90
2018-01-29T08:44:00.793Z,10.75
2018-01-29T08:46:30.297Z,11.43
2018-01-29T08:48:59.767Z,9.02
2018-01-29T08:51:29.277Z,7.47
2018-01-29T08:53:58.802Z,7.97
2018-01-29T08:56:28.402Z,13.70
2018-01-29T08:58:57.886Z,9.10
2018-01-29T09:01:27.377Z,11.50
2018-01-29T09:03:56.888Z,12.37
2018-01-29T09:06:26.380Z,10.27
2018-01-29T09:08:55.890Z,12.93
2018-01-29T09:11:25.425Z,9.43
2018-01-29T09:13:54.927Z,13.35
2018-01-29T09:16:24.457Z,14.70
2018-01-29T09:18:53.965Z,9.45
2018-01-29T09:21:23.435Z,11.98
2018-01-29T09:23:52.937Z,14.27
2018-01-29T09:26:22.414Z,10.13
2018-01-29T09:28:51.926Z,9.90
2018-01-29T09:31:21.426Z,13.80
2018-01-29T09:33:50.946Z,8.55
2018-01-29T09:36:20.454Z,16.00
2018-01-29T09:38:50.029Z,9.23
2018-01-29T09:41:19.496Z,9.40
2018-01-29T09:43:49.059Z,9.07
2018-01-29T09:46:18.634Z,13.38
2018-01-29T09:48:48.144Z,6.55
2018-01-29T09:51:17.664Z,12.68
2018-01-29T09:53:47.151Z,8.30
2018-01-29T09:56:16.680Z,15.07
2018-01-29T09:58:46.154Z,8.48
2018-01-29T10:01:15.680Z,12.25
2018-01-29T10:03:45.166Z,8.43
2018-01-29T10:06:14.642Z,10.45
2018-01-29T10:08:44.122Z,13.25
2018-01-29T10:11:13.570Z,9.35
2018-01-29T10:13:43.071Z,8.98
2018-01-29T10:16:12.562Z,10.50
2018-01-29T10:18:42.073Z,10.88
2018-01-29T10:21:11.532Z,8.88
2018-01-29T10:23:41.045Z,6.75
2018-01-29T10:26:10.530Z,9.75
2018-01-29T10:28:40.037Z,8.38
2018-01-29T10:31:09.498Z,10.35
2018-01-29T10:33:39.004Z,8.23
2018-01-29T10:36:08.483Z,10.27
2018-01-29T10:38:38.113Z,14.73
2018-01-29T10:41:07.624Z,7.72
2018-01-29T10:43:37.132Z,10.45
2018-01-29T10:46:06.688Z,9.63
2018-01-29T10:48:36.165Z,11.55
2018-01-29T10:51:05.653Z,8.35
2018-01-29T10:53:35.153Z,7.60
2018-01-29T10:56:04.681Z,10.32
2018-01-29T10:58:34.171Z,8.05
2018-01-29T11:01:09.499Z,7.62
2018-01-29T11:03:38.998Z,7.70
2018-01-29T11:06:08.512Z,8.77
2018-01-29T11:08:37.994Z,7.75
2018-01-29T11:11:07.476Z,8.20
2018-01-29T11:13:36.938Z,9.10
2018-01-29T11:16:06.461Z,10.15
2018-01-29T11:18:35.936Z,12.45
2018-01-29T11:21:05.437Z,12.57
2018-01-29T11:23:34.882Z,9.57
2018-01-29T11:26:04.438Z,6.75
2018-01-29T11:28:33.924Z,9.43
2018-01-29T11:31:03.492Z,8.40
2018-01-29T11:33:33.000Z,9.05
2018-01-29T11:36:02.586Z,11.02
2018-01-29T11:38:32.102Z,11.45
2018-01-29T11:41:01.550Z,12.82
2018-01-29T11:43:31.056Z,8.45
2018-01-29T11:46:00.574Z,8.20
2018-01-29T11:48:30.136Z,9.10
2018-01-29T11:50:59.616Z,11.12
2018-01-29T11:53:29.128Z,8.27
2018-01-29T11:55:58.631Z,6.18
2018-01-29T11:58:28.120Z,8.73
2018-01-29T12:00:57.633Z,11.32
2018-01-29T12:03:27.090Z,10.75
2018-01-29T12:05:56.585Z,10.95
2018-01-29T12:08:26.079Z,10.25
2018-01-29T12:10:55.654Z,14.20
2018-01-29T12:13:25.142Z,9.77
2018-01-29T12:15:54.600Z,5.15
2018-01-29T12:18:24.220Z,7.68
2018-01-29T12:20:53.697Z,6.22
2018-01-29T12:23:23.179Z,9.32
2018-01-29T12:25:52.671Z,6.60
2018-01-29T12:28:22.193Z,8.98
2018-01-29T12:30:51.708Z,7.43
2018-01-29T12:33:21.213Z,5.15
2018-01-29T12:35:50.748Z,6.78
2018-01-29T12:38:20.258Z,7.10
2018-01-29T12:40:49.760Z,7.78
2018-01-29T12:43:19.227Z,5.32
2018-01-29T12:45:48.857Z,5.15
2018-01-29T12:48:18.328Z,4.80
2018-01-29T12:50:47.826Z,5.05
2018-01-29T12:53:17.311Z,5.53
2018-01-29T12:55:46.819Z,10.30
2018-01-29T12:58:16.282Z,7.97
2018-01-29T13:00:45.813Z,5.57
2018-01-29T13:03:15.303Z,5.30
2018-01-29T13:05:44.802Z,10.32
2018-01-29T13:08:14.388Z,6.43
2018-01-29T13:10:43.848Z,8.27
2018-01-29T13:13:13.353Z,5.62
2018-01-29T13:15:42.919Z,6.22
2018-01-29T13:18:12.371Z,9.13
2018-01-29T13:20:41.859Z,6.25
2018-01-29T13:23:11.364Z,9.30
2018-01-29T13:25:40.886Z,5.65
2018-01-29T13:28:10.465Z,7.45
2018-01-29T13:30:39.974Z,6.18
2018-01-29T13:33:09.431Z,4.60
2018-01-29T13:35:38.966Z,7.82
2018-01-29T13:38:08.457Z,6.10
2018-01-29T13:40:37.972Z,6.62
2018-01-29T13:43:07.439Z,8.38
2018-01-29T13:45:36.973Z,6.55
2018-01-29T13:48:06.423Z,7.78
2018-01-29T13:50:35.906Z,6.15
2018-01-29T13:53:05.381Z,5.70
2018-01-29T13:55:34.886Z,5.30
2018-01-29T13:58:04.414Z,5.95
2018-01-29T14:00:33.925Z,6.12
2018-01-29T14:03:03.437Z,5.70
2018-01-29T14:05:32.926Z,5.45
2018-01-29T14:08:02.450Z,6.80
2018-01-29T14:10:31.926Z,8.63
2018-01-29T14:13:01.440Z,6.82
2018-01-29T14:15:30.899Z,6.78
2018-01-29T14:18:00.426Z,5.18
2018-01-29T14:20:29.909Z,6.20
2018-01-29T14:22:59.416Z,5.70
2018-01-29T14:25:28.885Z,5.93
2018-01-29T14:27:58.380Z,6.70
2018-01-29T14:30:27.890Z,9.05
2018-01-29T14:32:57.343Z,6.62
2018-01-29T14:35:26.847Z,6.72
2018-01-29T14:37:56.391Z,5.95
2018-01-29T14:40:25.902Z,7.00
2018-01-29T14:42:55.372Z,6.53
2018-01-29T14:45:24.877Z,5.70
2018-01-29T14:47:54.371Z,7.22
2018-01-29T14:50:23.884Z,5.30
2018-01-29T14:52:53.404Z,5.25
2018-01-29T14:55:22.896Z,6.45
2018-01-29T14:57:52.418Z,6.15
2018-01-29T15:00:21.927Z,5.22
2018-01-29T15:02:51.422Z,5.97
2018-01-29T15:05:20.905Z,7.95
2018-01-29T15:07:50.401Z,5.03
2018-01-29T15:10:19.926Z,5.55
2018-01-29T15:12:49.413Z,9.10
2018-01-29T15:15:18.912Z,7.15
2018-01-29T15:17:48.435Z,7.97
2018-01-29T15:20:18.128Z,8.30
2018-01-29T15:22:47.589Z,7.37
2018-01-29T15:25:17.095Z,8.38
2018-01-29T15:27:46.622Z,6.18
2018-01-29T15:30:16.088Z,6.10
2018-01-29T15:32:45.604Z,6.35
2018-01-29T15:35:15.132Z,6.80
2018-01-29T15:37:44.642Z,7.62
2018-01-29T15:40:14.131Z,6.80
2018-01-29T15:42:43.850Z,7.30
2018-01-29T15:45:13.342Z,8.68
2018-01-29T15:47:42.912Z,5.10
2018-01-29T15:50:12.425Z,5.28
2018-01-29T15:52:41.905Z,14.73
2018-01-29T15:55:11.436Z,6.78
2018-01-29T15:57:40.897Z,4.35
2018-01-29T16:00:10.457Z,11.07
2018-01-29T16:02:39.945Z,4.80
2018-01-29T16:05:09.441Z,7.93
2018-01-29T16:07:39.078Z,6.28
2018-01-29T16:10:08.568Z,6.90
2018-01-29T16:12:38.021Z,5.32
2018-01-29T16:15:07.546Z,7.07
2018-01-29T16:17:37.064Z,7.47
2018-01-29T16:20:06.565Z,8.45
2018-01-29T16:22:36.103Z,5.05
2018-01-29T16:25:05.606Z,5.95
2018-01-29T16:50:52.388Z,7.20
2018-01-29T16:53:21.841Z,7.43
2018-01-29T16:55:51.477Z,7.22
2018-01-29T16:58:20.993Z,6.05
2018-01-29T17:00:51.485Z,9.20
2018-01-29T17:03:21.044Z,5.78
2018-01-29T17:05:50.534Z,8.52
2018-01-29T17:08:20.001Z,6.90
2018-01-29T17:10:49.584Z,8.88
2018-01-29T17:13:19.075Z,6.80
2018-01-29T17:15:48.629Z,10.40
2018-01-29T17:18:18.142Z,5.15
2018-01-29T17:20:47.672Z,6.07
2018-01-29T17:23:17.155Z,6.10
2018-01-29T17:25:46.662Z,8.10
2018-01-29T17:28:16.187Z,5.45
2018-01-29T17:30:45.791Z,9.05
2018-01-29T17:33:15.246Z,7.22
2018-01-29T17:35:44.741Z,6.28
2018-01-29T17:38:14.248Z,5.62
2018-01-29T17:40:43.753Z,6.03
2018-01-29T17:43:13.329Z,5.65
2018-01-29T17:45:42.795Z,7.72
2018-01-29T17:48:12.334Z,6.05
2018-01-29T17:50:41.833Z,6.15
2018-01-29T17:53:11.400Z,6.70
2018-01-29T17:55:41.009Z,6.35
2018-01-29T17:58:10.488Z,4.75
2018-01-29T18:00:39.994Z,7.80
2018-01-29T18:03:09.496Z,4.78
2018-01-29T18:05:38.984Z,6.05
2018-01-29T18:08:08.510Z,5.00
2018-01-29T18:10:38.042Z,4.65
2018-01-29T18:13:07.526Z,4.57
2018-01-29T18:15:37.099Z,3.35
2018-01-29T18:18:06.616Z,5.55
2018-01-29T18:20:36.093Z,5.97
2018-01-29T18:23:05.661Z,3.47
2018-01-29T18:25:35.125Z,4.20
2018-01-29T18:28:04.627Z,2.92
2018-01-29T18:30:34.103Z,3.05
2018-01-29T18:33:03.606Z,4.10
2018-01-29T18:35:33.156Z,4.45
2018-01-29T18:38:02.732Z,3.30
2018-01-29T18:40:32.251Z,3.70
2018-01-29T18:43:01.888Z,3.87
2018-01-29T18:45:31.377Z,3.10
2018-01-29T18:48:00.921Z,3.37
2018-01-29T18:50:30.409Z,3.37
2018-01-29T18:52:59.908Z,4.07
2018-01-29T18:55:29.412Z,3.37
2018-01-29T18:57:58.914Z,3.17
2018-01-29T19:00:28.619Z,2.90
2018-01-29T19:02:58.104Z,3.35
2018-01-29T19:05:27.633Z,3.40
2018-01-29T19:07:57.148Z,4.72
2018-01-29T19:10:26.679Z,2.62
2018-01-29T19:12:56.178Z,2.72
2018-01-29T19:15:25.695Z,3.30
2018-01-29T19:17:55.200Z,4.65
2018-01-29T19:20:24.734Z,4.65
2018-01-29T19:22:54.263Z,2.72
2018-01-29T19:25:23.776Z,2.50
2018-01-29T19:27:53.275Z,2.25
2018-01-29T19:30:22.744Z,3.30
2018-01-29T19:32:52.251Z,2.17
2018-01-29T19:35:21.785Z,2.55
2018-01-29T19:37:51.304Z,4.15
2018-01-29T19:40:20.857Z,2.60
2018-01-29T19:42:50.382Z,3.35
2018-01-29T19:45:19.949Z,3.55
2018-01-29T19:47:49.462Z,2.30
2018-01-29T19:50:18.992Z,1.50
2018-01-29T19:52:48.669Z,1.27
2018-01-29T19:55:18.146Z,1.10
2018-01-29T19:57:47.667Z,1.30
2018-01-29T20:00:17.151Z,0.93
2018-01-29T20:02:46.686Z,1.65
2018-01-29T20:05:16.209Z,0.95
2018-01-29T20:07:45.704Z,0.90
2018-01-29T20:10:15.245Z,1.00
2018-01-29T20:12:44.717Z,1.00
2018-01-29T20:15:14.250Z,1.15
2018-01-29T20:17:43.731Z,1.65
2018-01-29T20:20:13.283Z,1.67
2018-01-29T20:22:42.766Z,1.40
2018-01-29T20:25:12.298Z,1.30
2018-01-29T20:27:41.820Z,1.73
2018-01-29T20:30:11.347Z,1.80
2018-01-29T20:32:40.881Z,1.70
2018-01-29T20:35:10.350Z,1.60
2018-01-29T20:37:39.895Z,1.87
2018-01-29T20:40:09.383Z,1.50
2018-01-29T20:42:38.908Z,1.40
2018-01-29T20:45:08.469Z,1.50
2018-01-29T20:47:37.951Z,1.48
2018-01-29T20:50:07.457Z,1.42
2018-01-29T20:52:36.985Z,1.42
2018-01-29T20:55:06.514Z,1.42
2018-01-29T20:57:35.981Z,1.27
2018-01-29T21:00:05.602Z,1.58
2018-01-29T21:02:35.094Z,0.90
2018-01-29T21:05:04.611Z,2.00
2018-01-29T21:07:34.109Z,2.28
2018-01-29T21:10:03.604Z,2.20
2018-01-29T21:12:33.115Z,4.78
2018-01-29T21:15:02.590Z,2.08
2018-01-29T21:17:32.110Z,1.27
2018-01-29T21:20:01.647Z,4.82
2018-01-29T21:22:31.142Z,3.42
2018-01-29T21:25:00.633Z,4.18
2018-01-29T21:27:30.098Z,5.03
2018-01-29T21:29:59.613Z,1.83
2018-01-29T21:32:29.223Z,1.98
2018-01-29T21:34:58.720Z,2.50
2018-01-29T21:37:28.181Z,4.85
2018-01-29T21:39:57.690Z,3.62
2018-01-29T21:42:27.295Z,3.65
2018-01-29T21:44:56.800Z,4.37
2018-01-29T21:47:26.309Z,3.00
2018-01-29T21:49:55.760Z,5.10
2018-01-29T21:52:25.297Z,4.70
2018-01-29T21:54:54.795Z,4.53
2018-01-29T21:57:24.268Z,3.67
2018-01-29T21:59:53.783Z,9.30
2018-01-29T22:02:23.331Z,3.75
2018-01-29T22:04:52.817Z,2.90
2018-01-29T22:07:22.313Z,4.55
2018-01-29T22:09:51.775Z,3.80
2018-01-29T22:12:21.411Z,1.87
2018-01-29T22:14:50.890Z,3.12
2018-01-29T22:17:20.402Z,4.15
2018-01-29T22:19:49.921Z,4.00
2018-01-29T22:22:19.448Z,6.35
2018-01-29T22:24:49.000Z,3.50
2018-01-29T22:27:18.489Z,3.08
2018-01-29T22:29:47.991Z,2.17
2018-01-29T22:32:17.520Z,4.87
2018-01-29T22:34:47.031Z,4.95
2018-01-29T22:37:16.533Z,4.18
2018-01-29T22:39:46.016Z,6.57
2018-01-29T22:42:15.531Z,6.07
2018-01-29T22:44:45.004Z,5.05
2018-01-29T22:47:14.500Z,4.30
2018-01-29T22:49:44.029Z,2.40
2018-01-29T22:52:13.508Z,5.15
2018-01-29T22:54:42.969Z,3.78
2018-01-29T22:57:12.499Z,8.32
2018-01-29T22:59:41.962Z,2.10
2018-01-29T23:02:11.448Z,3.05
2018-01-29T23:04:40.978Z,5.95
2018-01-29T23:07:10.494Z,6.70
2018-01-29T23:09:39.980Z,5.60
2018-01-29T23:12:09.524Z,3.40
2018-01-29T23:14:38.981Z,6.12
2018-01-29T23:17:08.501Z,4.72
2018-01-29T23:19:38.013Z,5.10
2018-01-29T23:22:07.524Z,9.68
2018-01-29T23:24:37.009Z,3.28
2018-01-29T23:27:06.464Z,5.82
2018-01-29T23:29:36.000Z,4.22
2018-01-29T23:32:05.483Z,3.45
2018-01-29T23:34:35.007Z,3.55
2018-01-29T23:37:04.462Z,10.88
2018-01-29T23:39:33.966Z,5.55
2018-01-29T23:42:03.485Z,7.45
2018-01-29T23:44:32.963Z,3.92
2018-01-29T23:47:02.467Z,2.65
2018-01-29T23:49:31.918Z,5.50
2018-01-29T23:52:01.551Z,6.50
2018-01-29T23:54:31.080Z,8.68
2018-01-29T23:57:00.545Z,3.10
2018-01-29T23:59:30.047Z,5.72
